Time;durP1;ratioP1;P1;durP2;ratioP2;P2;SDS_P1;SDS_P2;PMS_P1;PMS_P2;Temp;Humidity;BMP_temperature;BMP_pressure;BME280_temperature;BME280_humidity;BME280_pressure;Samples;Min_cycle;Max_cycle;Signal;HPM_P1;HPM_P2
2022/07/14 00:00:37;;;;;;;6.60;1.93;;;26.30;46.70;;;26.78;33.13;98910.66;4973540;28;118932;-89
2022/07/14 00:03:03;;;;;;;2.27;1.60;;;26.40;46.70;;;26.76;33.35;98913.91;4986279;28;124141;-89
2022/07/14 00:05:31;;;;;;;2.27;1.50;;;26.30;46.70;;;26.74;32.87;98910.69;4978661;28;123561;-89
2022/07/14 00:07:57;;;;;;;3.33;1.87;;;26.30;46.70;;;26.72;33.33;98890.44;4981832;28;120870;-88
2022/07/14 00:10:25;;;;;;;5.90;1.70;;;26.30;46.80;;;26.72;33.06;98901.78;4999451;28;119064;-88
2022/07/14 00:12:52;;;;;;;2.90;1.80;;;26.30;46.70;;;26.69;32.71;98894.13;4987753;28;123460;-89
2022/07/14 00:15:19;;;;;;;2.80;1.60;;;26.30;46.70;;;26.68;32.76;98901.03;4985215;28;124220;-89
2022/07/14 00:17:45;;;;;;;2.40;1.57;;;26.30;46.70;;;26.65;32.79;98896.19;4972105;28;120109;-90
2022/07/14 00:20:12;;;;;;;5.40;1.80;;;26.20;46.70;;;26.63;33.47;98904.31;4981050;28;120301;-90
2022/07/14 00:22:40;;;;;;;2.00;1.40;;;26.20;46.90;;;26.62;33.13;98902.69;4978179;28;124092;-89
2022/07/14 00:25:07;;;;;;;1.83;1.37;;;26.20;46.90;;;26.59;33.17;98898.66;4977440;28;123149;-90
2022/07/14 00:27:36;;;;;;;2.03;1.50;;;26.20;47.10;;;26.56;33.22;98893.84;4987324;28;118881;-89
2022/07/14 00:30:05;;;;;;;2.20;1.70;;;26.20;47.30;;;26.55;33.44;98897.09;4967245;28;119148;-91
2022/07/14 00:32:36;;;;;;;1.83;1.33;;;26.10;47.30;;;26.52;33.80;98887.41;4973756;28;124430;-89
2022/07/14 00:35:05;;;;;;;6.13;1.80;;;26.10;47.30;;;26.49;33.86;98893.06;4981230;28;123804;-88
2022/07/14 00:37:31;;;;;;;3.80;1.57;;;26.10;47.40;;;26.45;33.97;98881.75;4985820;28;119321;-88
2022/07/14 00:40:00;;;;;;;2.90;1.50;;;26.00;47.50;;;26.43;33.98;98881.38;4987058;28;119560;-90
2022/07/14 00:42:35;;;;;;;2.40;1.80;;;26.00;47.60;;;26.39;34.10;98884.25;4972716;28;124274;-90
2022/07/14 00:45:07;;;;;;;3.87;1.70;;;26.00;47.80;;;26.34;34.39;98873.34;4990755;28;123813;-90
2022/07/14 00:47:34;;;;;;;2.50;1.60;;;25.90;48.10;;;26.30;34.48;98886.72;4986020;28;118596;-90
2022/07/14 00:50:01;;;;;;;2.60;1.60;;;25.90;48.30;;;26.29;34.38;98898.50;4975906;28;119094;-89
2022/07/14 00:52:29;;;;;;;4.90;2.00;;;25.80;48.50;;;26.25;34.52;98895.69;4983728;28;124207;-90
2022/07/14 00:54:57;;;;;;;5.07;1.80;;;25.80;48.80;;;26.20;35.14;98901.78;4986388;28;124091;-89
2022/07/14 00:57:24;;;;;;;2.57;1.93;;;25.70;49.00;;;26.13;35.00;98904.66;4976859;28;117945;-89
2022/07/14 00:59:51;;;;;;;3.43;2.10;;;25.70;49.30;;;26.07;35.60;98895.00;4980555;28;118904;-89
2022/07/14 01:02:19;;;;;;;3.83;1.60;;;25.70;49.50;;;26.02;35.73;98887.75;4975401;28;123591;-89
2022/07/14 01:04:49;;;;;;;3.50;1.77;;;25.60;49.80;;;25.96;35.87;98895.06;4979162;28;123798;-89
2022/07/14 01:07:18;;;;;;;2.90;1.60;;;25.60;50.30;;;25.93;36.08;98895.91;4978592;28;120184;-89
2022/07/14 01:09:45;;;;;;;2.30;2.00;;;25.50;50.50;;;25.93;36.09;98901.56;4980323;28;119043;-90
2022/07/14 01:12:13;;;;;;;4.30;1.90;;;25.50;50.80;;;25.90;36.65;98906.03;4973808;28;124770;-90
2022/07/14 01:14:41;;;;;;;7.63;2.10;;;25.50;51.00;;;25.82;36.44;98907.25;4969977;28;123641;-91
2022/07/14 01:17:09;;;;;;;3.73;2.13;;;25.40;51.30;;;25.77;36.61;98913.34;4984932;28;119004;-90
2022/07/14 01:19:37;;;;;;;4.70;1.60;;;25.30;51.40;;;25.75;36.95;98907.28;4976634;28;118621;-89
2022/07/14 01:22:04;;;;;;;2.90;2.13;;;25.30;51.60;;;25.68;37.17;98902.47;5004868;28;123515;-90
2022/07/14 01:24:31;;;;;;;4.97;2.03;;;25.30;51.80;;;25.64;36.88;98909.38;4987862;28;124330;-90
2022/07/14 01:26:58;;;;;;;3.20;2.00;;;25.30;52.00;;;25.61;37.09;98904.56;4988533;28;119057;-91
2022/07/14 01:29:25;;;;;;;2.40;1.63;;;25.20;52.10;;;25.59;37.43;98906.97;4987728;28;118931;-90
2022/07/14 01:31:52;;;;;;;1.93;1.50;;;25.20;52.20;;;25.57;37.23;98907.38;4980600;28;124709;-90
2022/07/14 01:34:19;;;;;;;2.50;2.13;;;25.20;52.10;;;25.54;37.24;98902.53;4978369;28;124774;-91
2022/07/14 01:36:49;;;;;;;3.40;1.80;;;25.10;52.10;;;25.54;37.39;98905.38;4986828;28;116648;-89
2022/07/14 01:39:16;;;;;;;3.10;1.73;;;25.10;52.10;;;25.51;37.09;98898.50;4981295;28;119036;-90
2022/07/14 01:41:42;;;;;;;7.20;1.77;;;25.10;52.10;;;25.50;37.28;98896.09;4978782;28;124023;-89
2022/07/14 01:44:10;;;;;;;2.33;1.73;;;25.10;52.10;;;25.49;37.17;98900.13;4986093;28;123239;-90
2022/07/14 01:46:40;;;;;;;1.80;1.40;;;25.10;52.10;;;25.46;37.32;98895.31;4981246;28;120313;-89
2022/07/14 01:49:07;;;;;;;4.10;1.87;;;25.10;52.10;;;25.43;36.99;98894.09;4995015;28;119108;-90
2022/07/14 01:51:34;;;;;;;2.53;1.87;;;25.10;52.20;;;25.40;37.14;98906.25;4997343;28;124513;-89
2022/07/14 01:54:04;;;;;;;2.60;1.60;;;25.00;52.10;;;25.37;37.55;98901.41;4988549;28;123601;-88
2022/07/14 01:56:32;;;;;;;3.23;2.10;;;25.00;52.20;;;25.35;37.43;98893.31;4988151;28;120723;-90
2022/07/14 01:59:00;;;;;;;2.63;1.90;;;25.00;52.30;;;25.35;37.37;98895.34;4977793;28;120261;-90
2022/07/14 02:01:41;;;;;;;2.63;1.40;;;25.00;52.40;;;25.33;37.30;98889.28;4982135;28;124120;-90
2022/07/14 02:04:20;;;;;;;2.47;1.80;;;24.10;51.50;;;25.28;37.16;98884.03;4982238;28;124010;-91
2022/07/14 02:06:55;;;;;;;2.20;1.43;;;24.90;52.20;;;25.25;36.89;98891.31;4980617;28;119580;-89
2022/07/14 02:09:22;;;;;;;2.37;1.57;;;24.90;52.10;;;25.22;37.36;98885.69;4980743;28;118131;-90
2022/07/14 02:14:34;;;;;;;3.60;1.77;;;24.80;52.30;;;25.18;37.29;98882.09;4980601;28;125158;-90
2022/07/14 02:17:00;;;;;;;2.90;1.80;;;24.80;52.50;;;25.16;37.36;98876.03;4989280;28;119319;-90
2022/07/14 02:19:27;;;;;;;1.97;1.60;;;24.80;52.60;;;25.12;37.89;98876.03;4983295;28;118292;-90
2022/07/14 02:21:55;;;;;;;2.37;1.70;;;24.70;52.70;;;25.08;38.04;98870.34;4979941;28;124368;-90
2022/07/14 02:24:23;;;;;;;2.00;1.80;;;24.70;52.90;;;25.05;38.15;98876.84;4987783;28;123602;-90
2022/07/14 02:26:52;;;;;;;2.03;1.70;;;24.70;53.10;;;25.02;38.10;98871.19;4991921;28;119647;-90
2022/07/14 02:29:21;;;;;;;3.13;2.10;;;24.70;53.40;;;24.98;38.35;98871.19;4987853;28;119061;-91
2022/07/14 02:31:48;;;;;;;2.10;1.90;;;24.60;53.50;;;24.96;38.68;98879.28;4986325;28;123266;-91
2022/07/14 02:34:15;;;;;;;5.70;2.27;;;24.60;53.70;;;24.92;38.49;98872.81;4982729;28;124713;-91
2022/07/14 02:36:43;;;;;;;2.70;1.87;;;24.50;53.90;;;24.89;38.77;98871.63;4985843;28;119368;-90
2022/07/14 02:39:10;;;;;;;5.63;2.27;;;24.50;54.10;;;24.85;38.74;98868.00;4989765;28;118876;-91
2022/07/14 02:41:36;;;;;;;2.67;1.90;;;24.50;54.30;;;24.83;39.21;98867.59;4973856;28;124177;-89
2022/07/14 02:44:03;;;;;;;2.90;2.10;;;24.50;54.50;;;24.80;39.26;98871.25;4978880;28;123426;-91
2022/07/14 02:46:30;;;;;;;3.40;1.90;;;24.40;54.70;;;24.78;39.41;98862.38;4976084;28;120045;-90
2022/07/14 02:48:56;;;;;;;4.57;1.80;;;24.40;55.00;;;24.76;39.71;98875.28;4989745;28;119330;-90
2022/07/14 02:51:23;;;;;;;3.67;2.30;;;24.30;55.10;;;24.74;39.70;98874.88;4989565;28;124091;-91
2022/07/14 02:53:49;;;;;;;2.60;1.87;;;24.30;55.40;;;24.71;39.85;98873.66;4991181;28;124137;-90
2022/07/14 02:56:16;;;;;;;3.23;2.27;;;24.30;55.50;;;24.67;39.82;98873.69;4989812;28;119312;-90
2022/07/14 02:58:42;;;;;;;2.33;1.80;;;24.30;55.70;;;24.66;40.16;98872.09;4989639;28;119096;-90
2022/07/14 03:01:09;;;;;;;3.17;2.07;;;24.30;55.80;;;24.63;39.94;98878.53;4975428;28;123092;-90
2022/07/14 03:03:36;;;;;;;2.07;1.70;;;24.20;55.60;;;24.61;40.12;98874.47;4974385;28;123842;-91
2022/07/14 03:06:09;;;;;;;4.53;1.90;;;24.20;55.70;;;24.58;40.43;98870.47;4987091;28;119773;-90
2022/07/14 03:08:37;;;;;;;5.70;2.70;;;24.20;56.00;;;24.56;40.32;98872.91;4989891;28;119104;-90
2022/07/14 03:11:04;;;;;;;7.70;2.40;;;24.20;56.20;;;24.53;40.59;98867.22;4985949;28;123959;-90
2022/07/14 03:13:30;;;;;;;4.10;2.43;;;24.10;56.30;;;24.50;40.59;98866.03;4986915;28;123921;-89
2022/07/14 03:16:02;;;;;;;7.40;2.37;;;24.10;57.00;;;24.46;40.55;98868.84;4989603;28;118648;-89
2022/07/14 03:18:29;;;;;;;5.00;2.20;;;24.10;56.50;;;24.45;40.48;98872.09;4982089;28;119394;-89
2022/07/14 03:20:55;;;;;;;4.40;2.30;;;24.00;56.50;;;24.41;40.54;98862.78;4989508;28;124934;-89
2022/07/14 03:23:22;;;;;;;4.73;2.10;;;24.00;56.40;;;24.39;40.32;98856.72;4994898;28;124372;-90
2022/07/14 03:25:49;;;;;;;6.03;2.47;;;24.00;56.30;;;24.38;40.45;98860.78;4999629;28;121310;-91
2022/07/14 03:28:15;;;;;;;3.57;2.37;;;24.00;56.40;;;24.34;39.64;98855.13;4977761;28;119111;-91
2022/07/14 03:30:42;;;;;;;2.93;1.60;;;22.80;54.70;;;24.31;39.42;98858.75;4986418;28;123988;-90
2022/07/14 03:33:09;;;;;;;2.13;1.80;;;23.90;55.20;;;24.26;39.01;98864.81;4976745;28;124652;-91
2022/07/14 03:35:39;;;;;;;2.20;1.50;;;23.90;54.80;;;24.23;39.18;98860.78;4978439;28;120293;-91
2022/07/14 03:38:06;;;;;;;2.87;1.70;;;23.90;54.80;;;24.19;39.27;98859.97;4987885;28;119859;-91
2022/07/14 03:40:33;;;;;;;2.40;1.80;;;23.80;54.90;;;24.18;39.34;98857.53;4986933;28;123406;-90
2022/07/14 03:43:01;;;;;;;3.50;2.27;;;23.80;54.90;;;24.16;39.41;98854.31;4976700;28;122370;-90
2022/07/14 03:45:28;;;;;;;2.40;2.10;;;23.70;55.00;;;24.14;39.38;98857.53;4991219;28;119588;-92
2022/07/14 03:47:56;;;;;;;2.67;1.63;;;23.70;55.00;;;24.12;39.48;98857.13;4982927;28;118810;-90
2022/07/14 03:50:22;;;;;;;8.47;1.77;;;23.70;55.10;;;24.12;39.59;98861.97;4984422;28;124654;-92
2022/07/14 03:52:49;;;;;;;3.13;1.50;;;23.70;55.30;;;24.10;39.52;98868.03;4988096;28;123673;-90
2022/07/14 03:55:16;;;;;;;5.53;1.80;;;23.70;55.30;;;24.09;39.47;98865.59;4986682;28;119219;-89
2022/07/14 03:57:42;;;;;;;3.57;1.77;;;23.60;55.30;;;24.08;39.49;98870.44;4988028;28;118973;-90
2022/07/14 04:00:10;;;;;;;2.57;1.97;;;23.60;55.20;;;24.07;39.46;98871.63;4987870;28;123190;-90
2022/07/14 04:02:36;;;;;;;2.47;1.60;;;23.60;55.30;;;24.12;39.41;98868.41;4971068;28;123450;-90
2022/07/14 04:05:03;;;;;;;2.07;1.83;;;23.60;55.40;;;24.24;39.09;98865.19;4968552;28;119519;-89
2022/07/14 04:07:30;;;;;;;3.53;1.50;;;23.70;55.20;;;24.38;38.89;98861.56;4984973;28;118569;-89
2022/07/14 04:09:56;;;;;;;2.30;1.50;;;23.70;54.90;;;24.40;38.41;98864.00;4979401;28;124117;-90
2022/07/14 04:12:23;;;;;;;6.53;1.97;;;23.70;54.50;;;24.37;38.49;98859.16;4972235;28;123893;-90
2022/07/14 04:14:49;;;;;;;4.30;2.03;;;23.70;54.50;;;24.39;38.68;98863.16;4985330;28;119361;-89
2022/07/14 04:17:16;;;;;;;2.53;1.80;;;23.70;54.90;;;24.40;39.10;98864.00;4977479;28;119170;-92
2022/07/14 04:19:42;;;;;;;4.03;2.13;;;23.70;55.30;;;24.31;39.23;98858.75;4976722;28;124384;-90
2022/07/14 04:22:08;;;;;;;5.87;1.83;;;23.70;55.70;;;24.17;39.55;98870.84;4983600;28;123636;-89
2022/07/14 04:24:37;;;;;;;5.50;2.33;;;23.60;55.70;;;24.08;39.58;98872.47;4986742;28;120183;-90
2022/07/14 04:27:03;;;;;;;2.13;1.90;;;23.60;55.80;;;24.03;39.85;98873.66;4977927;28;119329;-90
2022/07/14 04:29:30;;;;;;;3.20;2.30;;;23.60;55.80;;;24.00;40.00;98875.28;4972723;28;124280;-91
2022/07/14 04:31:59;;;;;;;2.00;1.60;;;23.60;55.80;;;23.99;39.97;98875.66;4976804;28;124082;-89
2022/07/14 04:34:25;;;;;;;2.57;1.70;;;23.50;55.90;;;23.96;40.03;98877.25;4975894;28;119559;-88
2022/07/14 04:36:52;;;;;;;3.20;1.90;;;23.50;56.00;;;23.95;40.25;98880.50;4976181;28;118871;-89
2022/07/14 04:39:19;;;;;;;2.90;1.70;;;23.50;56.20;;;23.90;40.45;98881.69;4987143;28;124136;-90
2022/07/14 04:41:45;;;;;;;2.40;1.90;;;23.50;56.50;;;23.86;40.68;98880.06;4988268;28;123273;-90
2022/07/14 04:44:11;;;;;;;4.20;2.20;;;23.40;56.80;;;23.83;40.73;98881.69;4979780;28;119164;-89
2022/07/14 04:46:38;;;;;;;5.73;2.37;;;23.40;56.90;;;23.85;40.50;98878.47;4986850;28;118780;-90
2022/07/14 04:52:02;;;;;;;2.43;1.80;;;23.40;57.00;;;23.93;40.97;98880.09;4980133;28;124524;-90
2022/07/14 04:54:33;;;;;;;3.40;1.70;;;23.40;57.00;;;23.94;40.69;98876.06;4988719;28;119875;-88
2022/07/14 04:57:03;;;;;;;2.33;1.80;;;23.50;57.30;;;23.98;40.71;98891.00;4977866;28;119654;-91
2022/07/14 04:59:32;;;;;;;2.20;1.50;;;23.50;57.40;;;24.01;41.05;98899.44;5005140;28;124832;-89
2022/07/14 05:01:58;;;;;;;5.33;2.00;;;23.50;57.50;;;24.04;40.92;98886.56;4972005;28;123635;-90
2022/07/14 05:04:25;;;;;;;2.20;1.63;;;23.50;57.60;;;24.06;40.70;98886.16;4983583;28;119080;-89
2022/07/14 05:06:51;;;;;;;3.37;1.90;;;23.50;57.70;;;24.09;40.61;98883.34;4985649;28;119162;-89
2022/07/14 05:09:18;;;;;;;2.77;1.90;;;23.50;57.70;;;24.13;40.97;98884.16;4973066;28;123987;-88
2022/07/14 05:11:46;;;;;;;3.90;1.97;;;23.60;57.90;;;24.17;40.82;98884.97;4981056;28;123960;-89
2022/07/14 05:14:12;;;;;;;2.50;2.00;;;23.60;58.00;;;24.22;41.06;98889.41;4994675;28;119603;-88
2022/07/14 05:16:39;;;;;;;5.40;2.07;;;23.60;58.00;;;24.24;41.07;98882.16;4971882;28;119351;-90
2022/07/14 05:19:06;;;;;;;4.23;2.20;;;23.70;58.20;;;24.26;41.17;98884.59;4974817;28;123451;-89
2022/07/14 05:21:33;;;;;;;4.37;2.53;;;23.70;58.30;;;24.30;41.09;98881.75;4959692;28;123068;-88
2022/07/14 05:24:00;;;;;;;2.50;1.97;;;23.70;58.40;;;24.33;41.18;98881.75;4977763;28;119380;-89
2022/07/14 05:26:26;;;;;;;3.80;2.10;;;23.70;58.40;;;24.38;41.08;98883.38;4981080;28;119309;-89
2022/07/14 05:28:53;;;;;;;3.10;2.30;;;23.80;58.60;;;24.44;40.92;98881.78;4987784;28;124138;-89
2022/07/14 05:31:20;;;;;;;4.93;2.20;;;23.90;58.60;;;24.50;41.03;98880.16;4985197;28;123744;-89
2022/07/14 05:33:48;;;;;;;4.10;2.07;;;23.90;58.60;;;24.55;41.23;98876.91;4979496;28;120067;-89
2022/07/14 05:36:15;;;;;;;4.70;2.20;;;23.90;58.70;;;24.56;41.07;98872.91;4971595;28;119379;-89
2022/07/14 05:38:42;;;;;;;5.83;2.50;;;23.90;58.60;;;24.58;41.04;98864.81;4975607;28;123992;-87
2022/07/14 05:41:08;;;;;;;3.00;1.90;;;24.00;58.70;;;24.64;41.08;98866.03;4978426;28;123590;-87
2022/07/14 05:43:35;;;;;;;5.50;1.97;;;24.00;58.70;;;24.67;41.02;98862.38;4982345;28;119973;-88
2022/07/14 05:46:09;;;;;;;2.80;1.80;;;24.00;58.60;;;24.73;41.17;98859.94;4983429;28;118787;-86
2022/07/14 05:48:39;;;;;;;6.13;1.90;;;24.10;58.70;;;24.82;40.79;98851.84;4981597;28;123421;-83
2022/07/14 05:51:08;;;;;;;3.60;2.10;;;24.20;58.70;;;24.92;40.60;98858.69;4982267;28;123896;-82
2022/07/14 05:53:35;;;;;;;2.40;1.80;;;24.20;58.70;;;25.04;40.53;98865.91;4975359;28;120093;-83
2022/07/14 05:56:06;;;;;;;4.53;1.60;;;24.30;58.50;;;25.11;40.16;98858.22;4973068;28;118244;-82
2022/07/14 05:58:35;;;;;;;4.60;1.90;;;24.40;58.40;;;25.19;40.04;98853.38;4973478;28;124377;-83
2022/07/14 06:01:02;;;;;;;6.27;2.70;;;24.50;58.20;;;25.26;39.83;98855.41;4972730;28;121762;-81
2022/07/14 06:03:30;;;;;;;3.20;1.73;;;24.60;58.10;;;25.35;39.99;98859.38;4978689;28;120324;-82
2022/07/14 06:06:05;;;;;;;4.90;2.30;;;24.70;58.00;;;25.46;39.57;98856.50;4969381;28;120029;-84
2022/07/14 06:08:32;;;;;;;5.17;2.53;;;24.70;58.00;;;25.54;39.33;98858.06;4968023;28;123283;-83
2022/07/14 06:10:59;;;;;;;3.40;2.00;;;24.80;57.50;;;25.60;38.91;98852.78;4983702;28;124274;-83
2022/07/14 06:13:30;;;;;;;9.27;2.77;;;24.90;57.00;;;25.67;38.63;98857.63;4985889;28;119549;-83
2022/07/14 06:15:57;;;;;;;8.70;2.50;;;24.90;56.80;;;25.75;38.46;98856.34;4977366;28;118974;-83
2022/07/14 06:18:25;;;;;;;3.50;2.30;;;25.00;56.70;;;25.81;38.62;98846.19;4981988;28;123355;-83
2022/07/14 06:20:52;;;;;;;5.20;2.10;;;25.10;56.50;;;25.87;37.95;98855.91;4975688;28;123387;-82
2022/07/14 06:23:18;;;;;;;3.80;2.43;;;25.10;56.10;;;25.88;37.94;98854.69;4975647;28;119767;-81
2022/07/14 06:25:45;;;;;;;5.53;2.17;;;25.10;55.70;;;25.93;37.70;98850.63;4972203;28;119206;-82
2022/07/14 06:28:12;;;;;;;5.90;2.40;;;25.20;55.60;;;25.98;37.46;98858.66;4978014;28;98796;-82
2022/07/14 06:30:40;;;;;;;3.20;2.23;;;25.30;55.20;;;26.01;37.21;98846.50;4973032;28;123751;-81
2022/07/14 06:33:06;;;;;;;4.83;2.20;;;25.30;55.20;;;26.03;37.52;98849.72;4975215;28;118594;-82
2022/07/14 06:35:33;;;;;;;3.30;2.30;;;25.30;54.90;;;26.06;37.35;98836.75;4985664;28;118996;-80
2022/07/14 06:38:00;;;;;;;3.53;2.47;;;25.40;54.90;;;26.12;37.13;98840.75;4997921;28;123161;-81
2022/07/14 06:40:26;;;;;;;3.63;2.00;;;25.50;54.90;;;26.18;37.38;98836.25;4978149;28;122877;-80
2022/07/14 06:42:53;;;;;;;4.33;1.87;;;25.50;54.90;;;26.30;36.89;98830.06;4978815;28;119403;-80
2022/07/14 06:45:19;;;;;;;4.10;2.10;;;25.60;54.80;;;26.44;36.83;98829.97;4977476;28;118701;-82
2022/07/14 06:47:46;;;;;;;5.73;2.20;;;25.70;54.60;;;26.58;36.92;98822.56;4972368;28;125213;-82
2022/07/14 06:50:13;;;;;;;3.47;2.00;;;25.80;54.60;;;26.69;36.38;98823.25;4974021;28;126499;-82
2022/07/14 06:52:39;;;;;;;2.53;1.80;;;25.90;54.50;;;26.77;36.48;98824.78;4973436;28;120165;-82
2022/07/14 06:55:09;;;;;;;3.60;1.70;;;26.00;54.00;;;26.84;36.14;98818.22;4971983;28;119964;-80
2022/07/14 06:57:36;;;;;;;4.47;2.37;;;26.00;53.90;;;26.95;36.30;98826.63;4969528;28;123870;-80
2022/07/14 07:00:07;;;;;;;3.20;1.87;;;26.10;53.90;;;27.05;36.20;98817.97;4984043;28;123167;-82
2022/07/14 07:02:36;;;;;;;7.87;2.73;;;26.30;53.80;;;27.16;35.93;98812.19;4978459;28;119438;-80
2022/07/14 07:07:51;;;;;;;8.13;1.77;;;26.50;53.60;;;27.39;36.00;98813.56;4970892;28;124911;-82
2022/07/14 07:10:18;;;;;;;4.00;2.13;;;26.60;53.60;;;27.46;35.71;98813.47;4970940;28;124101;-81
2022/07/14 07:12:45;;;;;;;4.33;2.07;;;26.60;53.50;;;27.46;35.75;98810.63;4967017;28;118838;-82
2022/07/14 07:15:11;;;;;;;2.90;1.70;;;26.60;53.50;;;27.47;35.89;98810.19;4970725;28;118824;-81
2022/07/14 07:17:38;;;;;;;4.77;2.00;;;26.70;53.70;;;27.53;35.99;98819.03;4972265;28;124117;-80
2022/07/14 07:20:05;;;;;;;4.87;1.97;;;26.80;53.80;;;27.59;35.86;98808.78;4971071;28;123817;-82
2022/07/14 07:22:32;;;;;;;4.03;2.33;;;26.80;53.70;;;27.64;36.01;98808.31;4969328;28;118779;-83
2022/07/14 07:24:58;;;;;;;4.77;2.00;;;26.90;54.00;;;27.72;36.10;98809.00;4972192;28;120857;-82
2022/07/14 07:27:25;;;;;;;5.37;2.43;;;27.00;54.00;;;27.79;36.03;98806.09;4978577;28;123967;-83
2022/07/14 07:29:51;;;;;;;2.93;2.03;;;27.10;54.00;;;27.80;35.92;98795.53;4965546;28;123349;-83
2022/07/14 07:32:18;;;;;;;5.93;2.53;;;27.10;53.80;;;27.82;36.11;98801.59;4972085;28;120053;-82
2022/07/14 07:34:44;;;;;;;4.13;2.30;;;27.10;53.70;;;27.86;35.64;98802.34;4974829;28;118507;-81
2022/07/14 07:37:11;;;;;;;4.67;2.30;;;27.20;53.70;;;27.90;36.01;98800.28;4968053;28;124561;-80
2022/07/14 07:39:38;;;;;;;6.27;2.17;;;27.20;53.60;;;27.94;35.30;98789.63;4958372;28;123239;-81
2022/07/14 07:42:05;;;;;;;6.63;2.07;;;27.30;53.40;;;28.00;35.46;98790.78;4967164;28;120741;-81
2022/07/14 07:44:32;;;;;;;4.70;2.10;;;27.30;53.20;;;28.10;35.25;98788.97;4964474;28;120447;-82
2022/07/14 07:46:58;;;;;;;3.83;2.30;;;27.40;53.20;;;28.14;35.50;98779.16;4969346;28;124166;-82
2022/07/14 07:49:25;;;;;;;3.10;2.03;;;27.50;53.00;;;28.22;35.26;98776.22;4975053;28;124894;-82
2022/07/14 07:52:00;;;;;;;6.17;2.10;;;27.50;53.70;;;28.31;35.14;98774.41;4967082;28;119141;-82
2022/07/14 07:54:28;;;;;;;6.33;3.00;;;27.60;53.10;;;28.42;35.24;98766.50;4976775;28;119190;-83
2022/07/14 07:56:55;;;;;;;7.37;2.90;;;27.60;53.00;;;28.52;35.27;98767.56;4964987;28;125537;-80
2022/07/14 07:59:22;;;;;;;4.70;2.40;;;27.70;53.00;;;28.62;35.14;98766.53;4969131;28;123790;-82
2022/07/14 08:01:49;;;;;;;4.40;2.63;;;27.80;53.00;;;28.73;35.10;98772.03;4977126;28;119164;-83
2022/07/14 08:04:15;;;;;;;4.20;2.37;;;27.90;53.10;;;28.83;35.04;98761.69;4974623;28;118941;-81
2022/07/14 08:06:42;;;;;;;5.93;2.67;;;28.00;53.00;;;28.88;34.93;98766.84;4967592;28;123860;-82
2022/07/14 08:09:12;;;;;;;6.50;3.07;;;28.10;53.00;;;28.95;34.82;98757.38;4967092;28;125966;-82
2022/07/14 08:11:40;;;;;;;3.83;2.30;;;28.20;52.90;;;29.08;34.69;98754.69;4974754;28;119588;-82
2022/07/14 08:14:55;;;;;;;5.33;2.60;;;28.30;52.80;;;29.17;34.43;98754.91;4967300;28;118999;-83
2022/07/14 08:16:56;;;;;;;12.07;2.80;;;28.40;52.40;;;29.26;34.33;98749.44;4971288;28;124503;-83
2022/07/14 08:19:23;;;;;;;9.10;3.10;;;28.50;52.20;;;29.34;33.67;98745.19;4970322;28;123590;-83
2022/07/14 08:21:50;;;;;;;5.23;2.80;;;28.50;51.60;;;29.40;33.37;98736.91;4967031;28;119487;-82
2022/07/14 08:24:18;;;;;;;5.53;3.20;;;28.60;51.20;;;29.42;33.19;98735.22;4969877;28;119318;-83
2022/07/14 08:26:46;;;;;;;7.67;2.90;;;28.70;50.90;;;29.48;32.67;98738.34;4983168;28;123754;-82
2022/07/14 08:29:14;;;;;;;9.33;3.10;;;28.70;50.30;;;29.53;32.15;98737.81;4975875;28;123778;-83
2022/07/14 08:31:40;;;;;;;5.70;3.07;;;28.80;49.40;;;29.57;32.14;98729.19;4963419;28;121856;-80
2022/07/14 08:34:07;;;;;;;6.07;2.60;;;28.90;49.20;;;29.63;32.62;98727.41;4979634;28;119884;-81
2022/07/14 08:36:36;;;;;;;5.13;2.50;;;28.90;49.50;;;29.70;32.69;98721.59;4972170;28;123624;-82
2022/07/14 08:39:05;;;;;;;6.90;3.00;;;29.00;49.60;;;29.76;32.69;98714.09;4981447;28;123885;-80
2022/07/14 08:41:34;;;;;;;5.90;2.53;;;29.10;49.50;;;29.79;32.32;98718.91;4980425;28;119839;-81
2022/07/14 08:44:01;;;;;;;5.33;3.30;;;29.10;49.40;;;29.80;32.42;98708.34;4982967;28;118915;-82
2022/07/14 08:46:28;;;;;;;5.37;3.10;;;29.10;49.00;;;29.84;32.10;98703.34;4983768;28;124125;-82
2022/07/14 08:48:55;;;;;;;8.87;3.30;;;29.20;48.70;;;29.91;31.54;98712.50;4982481;28;123716;-80
2022/07/14 08:51:24;;;;;;;3.30;2.17;;;29.30;48.40;;;29.99;31.59;98706.63;4974067;28;119413;-81
2022/07/14 08:53:51;;;;;;;5.00;2.50;;;29.30;48.00;;;30.05;31.54;98699.13;4981428;28;119136;-80
2022/07/14 08:56:19;;;;;;;9.47;3.07;;;29.40;47.90;;;30.11;31.47;98703.81;4978230;28;124080;-81
2022/07/14 08:58:45;;;;;;;4.03;2.50;;;29.40;47.90;;;30.20;31.47;98706.06;4965717;28;124120;-83
2022/07/14 09:01:12;;;;;;;3.00;2.13;;;29.50;47.80;;;30.27;29.66;98705.88;4977927;28;118616;-83
2022/07/14 09:03:38;;;;;;;3.87;1.70;;;29.60;46.40;;;30.32;28.49;98693.13;4984042;28;117845;-84
2022/07/14 09:06:05;;;;;;;1.57;1.33;;;29.70;43.90;;;30.36;27.72;98686.09;4968212;28;124120;-81
2022/07/14 09:08:56;;;;;;;1.73;1.60;;;29.70;42.50;;;30.40;27.23;98688.03;4972559;28;123994;-81
2022/07/14 09:11:23;;;;;;;1.83;1.40;;;29.80;41.70;;;30.48;26.83;98678.03;4972772;28;118820;-81
2022/07/14 09:13:50;;;;;;;2.37;1.80;;;29.90;41.40;;;30.55;25.97;98677.84;4965074;28;118949;-82
2022/07/14 09:16:23;;;;;;;1.93;1.57;;;29.90;40.00;;;30.63;25.57;98673.53;4975117;28;123201;-81
2022/07/14 09:19:13;;;;;;;4.50;1.67;;;30.00;39.60;;;30.71;25.61;98669.22;4973633;28;123613;-82
2022/07/14 09:21:47;;;;;;;7.00;2.00;;;30.10;39.50;;;30.80;25.92;98677.94;4965042;28;119882;-81
2022/07/14 09:24:14;;;;;;;2.63;1.33;;;30.20;39.40;;;30.90;25.16;98669.53;4974549;28;120436;-82
2022/07/14 09:26:47;;;;;;;1.57;1.40;;;30.20;39.00;;;30.99;24.19;98666.78;4980784;28;123415;-82
2022/07/14 09:29:27;;;;;;;2.50;1.57;;;30.30;37.50;;;31.06;22.82;98660.88;4971623;28;124888;-83
2022/07/14 09:31:54;;;;;;;3.23;1.50;;;30.40;35.00;;;31.12;22.71;98658.25;4968966;28;118564;-82
2022/07/14 09:34:28;;;;;;;3.40;1.37;;;30.50;34.90;;;31.16;22.63;98647.50;4982747;28;118867;-82
2022/07/14 09:37:17;;;;;;;6.67;1.40;;;30.50;35.50;;;31.21;22.29;98652.63;4981184;28;124766;-84
2022/07/14 09:40:43;;;;;;;2.60;1.47;;;30.60;33.60;;;31.24;22.81;98646.81;4977401;28;123070;-81
2022/07/14 09:43:12;;;;;;;4.70;1.40;;;30.70;33.80;;;31.37;22.82;98641.13;4961754;28;119547;-84
2022/07/14 09:45:45;;;;;;;1.50;1.30;;;30.80;34.20;;;31.49;22.81;98648.09;4966798;28;118388;-82
2022/07/14 09:48:16;;;;;;;2.43;1.60;;;30.90;34.50;;;31.57;22.40;98642.91;4980113;28;124274;-82
2022/07/14 09:50:57;;;;;;;3.50;1.40;;;31.00;34.20;;;31.62;21.89;98640.31;4983018;28;124416;-83
2022/07/14 09:53:32;;;;;;;4.50;1.50;;;31.10;33.70;;;31.69;22.04;98634.34;4976135;28;118290;-83
2022/07/14 09:56:08;;;;;;;2.73;1.20;;;31.10;33.70;;;31.74;21.71;98627.25;4967400;28;118962;-83
2022/07/14 09:58:54;;;;;;;1.70;1.20;;;31.20;32.90;;;31.79;21.61;98625.88;4973515;28;124100;-83
2022/07/14 10:01:23;;;;;;;1.40;1.20;;;31.30;33.20;;;31.81;21.35;98629.88;4975168;28;124329;-83
2022/07/14 10:03:53;;;;;;;3.40;1.30;;;31.30;32.60;;;31.82;21.50;98624.94;4966622;28;119366;-83
2022/07/14 10:06:21;;;;;;;6.20;1.37;;;31.30;32.30;;;31.83;21.57;98626.53;4968453;28;118167;-82
2022/07/14 10:08:57;;;;;;;2.13;1.37;;;31.30;32.50;;;31.85;21.67;98618.31;4969349;28;123144;-85
2022/07/14 10:11:24;;;;;;;2.27;2.00;;;31.40;32.50;;;31.89;21.04;98625.50;4977792;28;124476;-81
2022/07/14 10:13:51;;;;;;;1.87;1.37;;;31.40;31.70;;;31.93;21.22;98633.19;4968303;28;120325;-82
2022/07/14 10:16:19;;;;;;;2.30;1.43;;;31.40;31.70;;;32.01;20.80;98625.94;4978570;28;120023;-81
2022/07/14 10:18:46;;;;;;;3.53;1.20;;;31.40;31.20;;;32.07;21.16;98629.81;4968283;28;124681;-82
2022/07/14 10:21:15;;;;;;;1.70;1.20;;;31.50;31.60;;;32.13;21.13;98622.22;4976643;28;126592;-81
2022/07/14 10:23:42;;;;;;;2.73;1.73;;;31.60;31.60;;;32.19;20.86;98602.41;4971805;28;119397;-82
2022/07/14 10:26:10;;;;;;;1.97;1.60;;;31.60;31.70;;;32.24;21.12;98607.53;4974277;28;119326;-81